sensor_id;sensor_type;location;lat;lon;timestamp;pressure;altitude;pressure_sealevel;temperature;humidity
7730;BME280;3908;52.310;7.230;2022-11-20T00:01:21;51238.94;;;-145.83;100.00
7730;BME280;3908;52.310;7.230;2022-11-20T00:04:10;51254.59;;;-145.83;100.00
7730;BME280;3908;52.310;7.230;2022-11-20T00:06:57;51217.44;;;-145.83;100.00
7730;BME280;3908;52.310;7.230;2022-11-20T00:09:45;51235.03;;;-145.83;100.00
7730;BME280;3908;52.310;7.230;2022-11-20T00:12:32;51246.78;;;-145.83;100.00
7730;BME280;3908;52.310;7.230;2022-11-20T00:15:19;51280.03;;;-145.83;100.00
7730;BME280;3908;52.310;7.230;2022-11-20T00:18:06;51248.72;;;-145.83;100.00
7730;BME280;3908;52.310;7.230;2022-11-20T00:21:00;51242.84;;;-145.83;100.00
7730;BME280;3908;52.310;7.230;2022-11-20T00:23:48;51246.78;;;-145.83;100.00
7730;BME280;3908;52.310;7.230;2022-11-20T00:26:35;51237.00;;;-145.83;100.00
7730;BME280;3908;52.310;7.230;2022-11-20T00:29:22;51254.59;;;-145.83;100.00
7730;BME280;3908;52.310;7.230;2022-11-20T00:32:09;51280.03;;;-145.83;100.00
7730;BME280;3908;52.310;7.230;2022-11-20T00:34:56;51252.66;;;-145.83;100.00
7730;BME280;3908;52.310;7.230;2022-11-20T00:37:44;51252.66;;;-145.83;100.00
7730;BME280;3908;52.310;7.230;2022-11-20T00:40:31;51268.28;;;-145.83;100.00
7730;BME280;3908;52.310;7.230;2022-11-20T00:43:18;51235.03;;;-145.83;100.00
7730;BME280;3908;52.310;7.230;2022-11-20T00:46:06;51227.22;;;-145.83;100.00
7730;BME280;3908;52.310;7.230;2022-11-20T00:48:54;51272.22;;;-145.83;100.00
7730;BME280;3908;52.310;7.230;2022-11-20T00:51:41;51229.16;;;-145.83;100.00
7730;BME280;3908;52.310;7.230;2022-11-20T00:54:30;51283.94;;;-145.83;100.00
7730;BME280;3908;52.310;7.230;2022-11-20T00:57:17;51272.22;;;-145.83;100.00
7730;BME280;3908;52.310;7.230;2022-11-20T01:00:05;51215.47;;;-145.83;100.00
7730;BME280;3908;52.310;7.230;2022-11-20T01:02:52;51266.34;;;-145.83;100.00
7730;BME280;3908;52.310;7.230;2022-11-20T01:05:39;51229.16;;;-145.83;100.00
7730;BME280;3908;52.310;7.230;2022-11-20T01:08:29;51281.97;;;-145.83;100.00
7730;BME280;3908;52.310;7.230;2022-11-20T01:11:19;51272.22;;;-145.83;100.00
7730;BME280;3908;52.310;7.230;2022-11-20T01:14:09;51258.50;;;-145.83;100.00
7730;BME280;3908;52.310;7.230;2022-11-20T01:16:56;51262.44;;;-145.83;100.00
7730;BME280;3908;52.310;7.230;2022-11-20T01:19:43;51240.91;;;-145.83;100.00
7730;BME280;3908;52.310;7.230;2022-11-20T01:22:30;51254.59;;;-145.83;100.00
7730;BME280;3908;52.310;7.230;2022-11-20T01:25:17;51203.72;;;-145.83;100.00
7730;BME280;3908;52.310;7.230;2022-11-20T01:28:06;51266.34;;;-145.83;100.00
7730;BME280;3908;52.310;7.230;2022-11-20T01:30:52;51231.13;;;-145.83;100.00
7730;BME280;3908;52.310;7.230;2022-11-20T01:33:40;51254.59;;;-145.83;100.00
7730;BME280;3908;52.310;7.230;2022-11-20T01:36:29;51207.66;;;-145.83;100.00
7730;BME280;3908;52.310;7.230;2022-11-20T01:39:18;51301.53;;;-145.83;100.00
7730;BME280;3908;52.310;7.230;2022-11-20T01:42:07;51262.44;;;-145.83;100.00
7730;BME280;3908;52.310;7.230;2022-11-20T01:48:52;51276.13;;;-145.83;100.00
7730;BME280;3908;52.310;7.230;2022-11-20T01:51:45;51237.00;;;-145.83;100.00
7730;BME280;3908;52.310;7.230;2022-11-20T01:54:38;51242.84;;;-145.83;100.00
7730;BME280;3908;52.310;7.230;2022-11-20T01:57:28;51201.78;;;-145.83;100.00
7730;BME280;3908;52.310;7.230;2022-11-20T02:00:18;51231.13;;;-145.83;100.00
7730;BME280;3908;52.310;7.230;2022-11-20T02:03:08;51225.25;;;-145.83;100.00
7730;BME280;3908;52.310;7.230;2022-11-20T02:06:03;51229.16;;;-145.83;100.00
7730;BME280;3908;52.310;7.230;2022-11-20T02:08:52;51235.03;;;-145.83;100.00
7730;BME280;3908;52.310;7.230;2022-11-20T02:11:39;51264.38;;;-145.83;100.00
7730;BME280;3908;52.310;7.230;2022-11-20T02:14:26;51248.72;;;-145.83;100.00
7730;BME280;3908;52.310;7.230;2022-11-20T02:17:12;51258.50;;;-145.83;100.00
7730;BME280;3908;52.310;7.230;2022-11-20T02:19:59;51283.94;;;-145.83;100.00
7730;BME280;3908;52.310;7.230;2022-11-20T02:22:52;51235.03;;;-145.83;100.00
7730;BME280;3908;52.310;7.230;2022-11-20T02:25:43;51223.28;;;-145.83;100.00
7730;BME280;3908;52.310;7.230;2022-11-20T02:28:32;51266.34;;;-145.83;100.00
7730;BME280;3908;52.310;7.230;2022-11-20T02:31:19;51256.56;;;-145.83;100.00
7730;BME280;3908;52.310;7.230;2022-11-20T02:34:06;51254.59;;;-145.83;100.00
7730;BME280;3908;52.310;7.230;2022-11-20T02:36:53;51256.56;;;-145.83;100.00
7730;BME280;3908;52.310;7.230;2022-11-20T02:39:40;51262.44;;;-145.83;100.00
7730;BME280;3908;52.310;7.230;2022-11-20T02:42:30;51225.25;;;-145.83;100.00
7730;BME280;3908;52.310;7.230;2022-11-20T02:45:17;51213.50;;;-145.83;100.00
7730;BME280;3908;52.310;7.230;2022-11-20T02:48:05;51246.78;;;-145.83;100.00
7730;BME280;3908;52.310;7.230;2022-11-20T02:50:55;51197.88;;;-145.83;100.00
7730;BME280;3908;52.310;7.230;2022-11-20T02:53:42;51201.78;;;-145.83;100.00
7730;BME280;3908;52.310;7.230;2022-11-20T02:56:32;51264.38;;;-145.83;100.00
7730;BME280;3908;52.310;7.230;2022-11-20T02:59:20;51244.81;;;-145.83;100.00
7730;BME280;3908;52.310;7.230;2022-11-20T03:02:07;51238.94;;;-145.83;100.00
7730;BME280;3908;52.310;7.230;2022-11-20T03:04:54;51227.22;;;-145.83;100.00
7730;BME280;3908;52.310;7.230;2022-11-20T03:07:43;51248.72;;;-145.83;100.00
7730;BME280;3908;52.310;7.230;2022-11-20T03:10:30;51266.34;;;-145.83;100.00
7730;BME280;3908;52.310;7.230;2022-11-20T03:13:17;51237.00;;;-145.83;100.00
7730;BME280;3908;52.310;7.230;2022-11-20T03:16:10;51211.56;;;-145.83;100.00
7730;BME280;3908;52.310;7.230;2022-11-20T03:18:58;51242.84;;;-145.83;100.00
7730;BME280;3908;52.310;7.230;2022-11-20T03:21:45;51278.06;;;-145.83;100.00
7730;BME280;3908;52.310;7.230;2022-11-20T03:24:32;51266.34;;;-145.83;100.00
7730;BME280;3908;52.310;7.230;2022-11-20T03:27:19;51248.72;;;-145.83;100.00
7730;BME280;3908;52.310;7.230;2022-11-20T03:30:07;51197.88;;;-145.83;100.00
7730;BME280;3908;52.310;7.230;2022-11-20T03:32:58;51207.66;;;-145.83;100.00
7730;BME280;3908;52.310;7.230;2022-11-20T03:35:45;51207.66;;;-145.83;100.00
7730;BME280;3908;52.310;7.230;2022-11-20T03:38:32;51248.72;;;-145.83;100.00
7730;BME280;3908;52.310;7.230;2022-11-20T03:41:21;51238.94;;;-145.83;100.00
7730;BME280;3908;52.310;7.230;2022-11-20T03:44:10;51246.78;;;-145.83;100.00
7730;BME280;3908;52.310;7.230;2022-11-20T03:46:57;51235.03;;;-145.83;100.00
7730;BME280;3908;52.310;7.230;2022-11-20T03:49:45;51229.16;;;-145.83;100.00
7730;BME280;3908;52.310;7.230;2022-11-20T03:52:32;51211.56;;;-145.83;100.00
7730;BME280;3908;52.310;7.230;2022-11-20T03:55:19;51248.72;;;-145.83;100.00
7730;BME280;3908;52.310;7.230;2022-11-20T03:58:06;51268.28;;;-145.83;100.00
7730;BME280;3908;52.310;7.230;2022-11-20T04:00:53;51233.06;;;-145.83;100.00
7730;BME280;3908;52.310;7.230;2022-11-20T04:03:41;51250.69;;;-145.83;100.00
7730;BME280;3908;52.310;7.230;2022-11-20T04:06:33;51207.66;;;-145.83;100.00
7730;BME280;3908;52.310;7.230;2022-11-20T04:09:21;51264.38;;;-145.83;100.00
7730;BME280;3908;52.310;7.230;2022-11-20T04:12:08;51246.78;;;-145.83;100.00
7730;BME280;3908;52.310;7.230;2022-11-20T04:14:54;51219.38;;;-145.83;100.00
7730;BME280;3908;52.310;7.230;2022-11-20T04:17:41;51264.38;;;-145.83;100.00
7730;BME280;3908;52.310;7.230;2022-11-20T04:20:28;51223.28;;;-145.83;100.00
7730;BME280;3908;52.310;7.230;2022-11-20T04:23:19;51235.03;;;-145.83;100.00
7730;BME280;3908;52.310;7.230;2022-11-20T04:26:08;51256.56;;;-145.83;100.00
7730;BME280;3908;52.310;7.230;2022-11-20T04:28:55;51248.72;;;-145.83;100.00
7730;BME280;3908;52.310;7.230;2022-11-20T04:31:43;51250.69;;;-145.83;100.00
7730;BME280;3908;52.310;7.230;2022-11-20T04:34:30;51231.13;;;-145.83;100.00
7730;BME280;3908;52.310;7.230;2022-11-20T04:37:17;51238.94;;;-145.83;100.00
7730;BME280;3908;52.310;7.230;2022-11-20T04:40:06;51238.94;;;-145.83;100.00
7730;BME280;3908;52.310;7.230;2022-11-20T04:42:54;51252.66;;;-145.83;100.00
7730;BME280;3908;52.310;7.230;2022-11-20T04:45:41;51240.91;;;-145.83;100.00
7730;BME280;3908;52.310;7.230;2022-11-20T04:48:29;51238.94;;;-145.83;100.00
7730;BME280;3908;52.310;7.230;2022-11-20T04:51:16;51225.25;;;-145.83;100.00
7730;BME280;3908;52.310;7.230;2022-11-20T04:54:03;51223.28;;;-145.83;100.00
7730;BME280;3908;52.310;7.230;2022-11-20T04:56:51;51246.78;;;-145.83;100.00
7730;BME280;3908;52.310;7.230;2022-11-20T04:59:38;51213.50;;;-145.83;100.00
7730;BME280;3908;52.310;7.230;2022-11-20T05:02:25;51246.78;;;-145.83;100.00
7730;BME280;3908;52.310;7.230;2022-11-20T05:05:12;51221.34;;;-145.83;100.00
7730;BME280;3908;52.310;7.230;2022-11-20T05:07:59;51209.59;;;-145.83;100.00
7730;BME280;3908;52.310;7.230;2022-11-20T05:10:46;51258.50;;;-145.83;100.00
7730;BME280;3908;52.310;7.230;2022-11-20T05:13:38;51215.47;;;-145.83;100.00
7730;BME280;3908;52.310;7.230;2022-11-20T05:16:26;51240.91;;;-145.83;100.00
7730;BME280;3908;52.310;7.230;2022-11-20T05:19:13;51203.72;;;-145.83;100.00
7730;BME280;3908;52.310;7.230;2022-11-20T05:22:00;51231.13;;;-145.83;100.00
7730;BME280;3908;52.310;7.230;2022-11-20T05:24:46;51242.84;;;-145.83;100.00
7730;BME280;3908;52.310;7.230;2022-11-20T05:27:34;51223.28;;;-145.83;100.00
7730;BME280;3908;52.310;7.230;2022-11-20T05:30:22;51244.81;;;-145.83;100.00
7730;BME280;3908;52.310;7.230;2022-11-20T05:33:09;51221.34;;;-145.83;100.00
7730;BME280;3908;52.310;7.230;2022-11-20T05:35:57;51223.28;;;-145.83;100.00
7730;BME280;3908;52.310;7.230;2022-11-20T05:38:44;51246.78;;;-145.83;100.00
7730;BME280;3908;52.310;7.230;2022-11-20T05:41:32;51237.00;;;-145.83;100.00
7730;BME280;3908;52.310;7.230;2022-11-20T05:44:19;51205.69;;;-145.83;100.00
7730;BME280;3908;52.310;7.230;2022-11-20T05:47:08;51246.78;;;-145.83;100.00
7730;BME280;3908;52.310;7.230;2022-11-20T05:49:55;51231.13;;;-145.83;100.00
7730;BME280;3908;52.310;7.230;2022-11-20T05:52:42;51207.66;;;-145.83;100.00
7730;BME280;3908;52.310;7.230;2022-11-20T05:55:29;51252.66;;;-145.83;100.00
7730;BME280;3908;52.310;7.230;2022-11-20T05:58:16;51207.66;;;-145.83;100.00
7730;BME280;3908;52.310;7.230;2022-11-20T06:01:04;51225.25;;;-145.83;100.00
7730;BME280;3908;52.310;7.230;2022-11-20T06:03:54;51225.25;;;-145.83;100.00
7730;BME280;3908;52.310;7.230;2022-11-20T06:06:41;51246.78;;;-145.83;100.00
7730;BME280;3908;52.310;7.230;2022-11-20T06:09:27;51215.47;;;-145.83;100.00
7730;BME280;3908;52.310;7.230;2022-11-20T06:12:14;51242.84;;;-145.83;100.00
7730;BME280;3908;52.310;7.230;2022-11-20T06:15:02;51238.94;;;-145.83;100.00
7730;BME280;3908;52.310;7.230;2022-11-20T06:17:51;51248.72;;;-145.83;100.00
7730;BME280;3908;52.310;7.230;2022-11-20T06:20:40;51238.94;;;-145.83;100.00
7730;BME280;3908;52.310;7.230;2022-11-20T06:23:28;51190.03;;;-145.83;100.00
7730;BME280;3908;52.310;7.230;2022-11-20T06:26:17;51225.25;;;-145.83;100.00
7730;BME280;3908;52.310;7.230;2022-11-20T06:29:04;51233.06;;;-145.83;100.00
7730;BME280;3908;52.310;7.230;2022-11-20T06:31:51;51260.47;;;-145.83;100.00
7730;BME280;3908;52.310;7.230;2022-11-20T06:34:38;51217.44;;;-145.83;100.00
7730;BME280;3908;52.310;7.230;2022-11-20T06:37:27;51248.72;;;-145.83;100.00
7730;BME280;3908;52.310;7.230;2022-11-20T06:40:15;51213.50;;;-145.83;100.00
7730;BME280;3908;52.310;7.230;2022-11-20T06:43:02;51225.25;;;-145.83;100.00
7730;BME280;3908;52.310;7.230;2022-11-20T06:45:51;51237.00;;;-145.83;100.00
7730;BME280;3908;52.310;7.230;2022-11-20T06:48:39;51227.22;;;-145.83;100.00
7730;BME280;3908;52.310;7.230;2022-11-20T06:51:26;51254.59;;;-145.83;100.00
7730;BME280;3908;52.310;7.230;2022-11-20T06:54:14;51219.38;;;-145.83;100.00
7730;BME280;3908;52.310;7.230;2022-11-20T06:57:01;51205.69;;;-145.83;100.00
7730;BME280;3908;52.310;7.230;2022-11-20T06:59:48;51238.94;;;-145.83;100.00
7730;BME280;3908;52.310;7.230;2022-11-20T07:02:35;51244.81;;;-145.83;100.00
7730;BME280;3908;52.310;7.230;2022-11-20T07:05:22;51237.00;;;-145.83;100.00
7730;BME280;3908;52.310;7.230;2022-11-20T07:08:09;51235.03;;;-145.83;100.00
7730;BME280;3908;52.310;7.230;2022-11-20T07:10:59;51227.22;;;-145.83;100.00
7730;BME280;3908;52.310;7.230;2022-11-20T07:13:46;51229.16;;;-145.83;100.00
7730;BME280;3908;52.310;7.230;2022-11-20T07:16:33;51240.91;;;-145.83;100.00
7730;BME280;3908;52.310;7.230;2022-11-20T07:19:20;51240.91;;;-145.83;100.00
7730;BME280;3908;52.310;7.230;2022-11-20T07:22:07;51250.69;;;-145.83;100.00
7730;BME280;3908;52.310;7.230;2022-11-20T07:24:54;51242.84;;;-145.83;100.00
7730;BME280;3908;52.310;7.230;2022-11-20T07:27:43;51242.84;;;-145.83;100.00
7730;BME280;3908;52.310;7.230;2022-11-20T07:30:30;51215.47;;;-145.83;100.00
7730;BME280;3908;52.310;7.230;2022-11-20T07:33:17;51237.00;;;-145.83;100.00
7730;BME280;3908;52.310;7.230;2022-11-20T07:36:04;51229.16;;;-145.83;100.00
7730;BME280;3908;52.310;7.230;2022-11-20T07:38:51;51213.50;;;-145.83;100.00
7730;BME280;3908;52.310;7.230;2022-11-20T07:41:39;51246.78;;;-145.83;100.00
7730;BME280;3908;52.310;7.230;2022-11-20T07:44:28;51231.13;;;-145.83;100.00
7730;BME280;3908;52.310;7.230;2022-11-20T07:47:15;51254.59;;;-145.83;100.00
7730;BME280;3908;52.310;7.230;2022-11-20T07:50:02;51256.56;;;-145.83;100.00
7730;BME280;3908;52.310;7.230;2022-11-20T07:52:49;51252.66;;;-145.83;100.00
7730;BME280;3908;52.310;7.230;2022-11-20T07:55:37;51254.59;;;-145.83;100.00
7730;BME280;3908;52.310;7.230;2022-11-20T07:58:25;51240.91;;;-145.83;100.00
7730;BME280;3908;52.310;7.230;2022-11-20T08:01:13;51221.34;;;-145.83;100.00
7730;BME280;3908;52.310;7.230;2022-11-20T08:04:00;51258.50;;;-145.83;100.00
7730;BME280;3908;52.310;7.230;2022-11-20T08:06:47;51258.50;;;-145.83;100.00
7730;BME280;3908;52.310;7.230;2022-11-20T08:09:35;51270.25;;;-145.83;100.00
7730;BME280;3908;52.310;7.230;2022-11-20T08:12:22;51240.91;;;-145.83;100.00
7730;BME280;3908;52.310;7.230;2022-11-20T08:15:26;51229.16;;;-145.83;100.00
7730;BME280;3908;52.310;7.230;2022-11-20T08:18:15;51246.78;;;-145.83;100.00
7730;BME280;3908;52.310;7.230;2022-11-20T08:21:03;51242.84;;;-145.83;100.00
7730;BME280;3908;52.310;7.230;2022-11-20T08:23:50;51246.78;;;-145.83;100.00
7730;BME280;3908;52.310;7.230;2022-11-20T08:26:38;51242.84;;;-145.83;100.00
7730;BME280;3908;52.310;7.230;2022-11-20T08:29:26;51299.59;;;-145.83;100.00
7730;BME280;3908;52.310;7.230;2022-11-20T08:32:13;51297.63;;;-145.83;100.00
7730;BME280;3908;52.310;7.230;2022-11-20T08:35:01;51270.25;;;-145.83;100.00
7730;BME280;3908;52.310;7.230;2022-11-20T08:37:48;51281.97;;;-145.83;100.00
7730;BME280;3908;52.310;7.230;2022-11-20T08:40:36;51274.16;;;-145.83;100.00
7730;BME280;3908;52.310;7.230;2022-11-20T08:43:23;51307.41;;;-145.83;100.00
7730;BME280;3908;52.310;7.230;2022-11-20T08:46:10;51283.94;;;-145.83;100.00
7730;BME280;3908;52.310;7.230;2022-11-20T08:48:57;51313.28;;;-145.83;100.00
7730;BME280;3908;52.310;7.230;2022-11-20T08:51:45;51270.25;;;-145.83;100.00
7730;BME280;3908;52.310;7.230;2022-11-20T08:54:37;51299.59;;;-145.83;100.00
7730;BME280;3908;52.310;7.230;2022-11-20T08:57:24;51278.06;;;-145.83;100.00
7730;BME280;3908;52.310;7.230;2022-11-20T09:00:12;51252.66;;;-145.83;100.00
7730;BME280;3908;52.310;7.230;2022-11-20T09:02:59;51309.38;;;-145.83;100.00
7730;BME280;3908;52.310;7.230;2022-11-20T09:05:46;51344.59;;;-145.83;100.00
7730;BME280;3908;52.310;7.230;2022-11-20T09:08:35;51321.09;;;-145.83;100.00
7730;BME280;3908;52.310;7.230;2022-11-20T09:11:23;51315.25;;;-145.83;100.00
7730;BME280;3908;52.310;7.230;2022-11-20T09:14:10;51305.47;;;-145.83;100.00
7730;BME280;3908;52.310;7.230;2022-11-20T09:16:58;51315.25;;;-145.83;100.00
7730;BME280;3908;52.310;7.230;2022-11-20T09:19:45;51340.69;;;-145.83;99.68
7730;BME280;3908;52.310;7.230;2022-11-20T09:22:32;51280.03;;;-145.83;100.00
7730;BME280;3908;52.310;7.230;2022-11-20T09:25:20;51315.25;;;-145.83;100.00
7730;BME280;3908;52.310;7.230;2022-11-20T09:28:07;51340.69;;;-145.83;99.00
7730;BME280;3908;52.310;7.230;2022-11-20T09:30:55;51305.47;;;-145.83;98.54
7730;BME280;3908;52.310;7.230;2022-11-20T09:33:42;51315.25;;;-145.83;99.28
7730;BME280;3908;52.310;7.230;2022-11-20T09:36:29;51293.72;;;-145.83;99.19
7730;BME280;3908;52.310;7.230;2022-11-20T09:39:16;51299.59;;;-145.83;98.65
7730;BME280;3908;52.310;7.230;2022-11-20T09:42:30;51319.16;;;-145.83;97.55
7730;BME280;3908;52.310;7.230;2022-11-20T09:45:23;51313.28;;;-145.83;98.12
7730;BME280;3908;52.310;7.230;2022-11-20T09:48:20;51323.06;;;-145.83;98.60
7730;BME280;3908;52.310;7.230;2022-11-20T09:51:19;51295.69;;;-145.83;98.62
7730;BME280;3908;52.310;7.230;2022-11-20T09:54:16;51311.31;;;-145.83;97.14
7730;BME280;3908;52.310;7.230;2022-11-20T09:57:09;51289.81;;;-145.83;96.51
7730;BME280;3908;52.310;7.230;2022-11-20T10:00:00;51315.25;;;-145.83;95.59
7730;BME280;3908;52.310;7.230;2022-11-20T10:02:54;51328.94;;;-145.83;96.03
7730;BME280;3908;52.310;7.230;2022-11-20T10:05:45;51340.69;;;-145.83;96.48
7730;BME280;3908;52.310;7.230;2022-11-20T10:08:40;51340.69;;;-145.83;96.05
7730;BME280;3908;52.310;7.230;2022-11-20T10:11:35;51330.91;;;-145.83;94.65
7730;BME280;3908;52.310;7.230;2022-11-20T10:14:34;51346.53;;;-145.83;97.23
7730;BME280;3908;52.310;7.230;2022-11-20T10:17:40;51360.22;;;-145.83;96.52
7730;BME280;3908;52.310;7.230;2022-11-20T10:20:33;51346.53;;;-145.83;96.02
7730;BME280;3908;52.310;7.230;2022-11-20T10:23:44;51348.50;;;-145.83;95.70
7730;BME280;3908;52.310;7.230;2022-11-20T10:26:43;51352.41;;;-145.83;95.51
7730;BME280;3908;52.310;7.230;2022-11-20T10:29:36;51311.31;;;-145.83;95.34
7730;BME280;3908;52.310;7.230;2022-11-20T10:32:33;51328.94;;;-145.83;95.07
7730;BME280;3908;52.310;7.230;2022-11-20T10:35:23;51319.16;;;-145.83;96.05
7730;BME280;3908;52.310;7.230;2022-11-20T10:38:18;51330.91;;;-145.83;95.62
7730;BME280;3908;52.310;7.230;2022-11-20T10:41:11;51379.81;;;-145.83;94.85
7730;BME280;3908;52.310;7.230;2022-11-20T10:44:14;51328.94;;;-145.83;94.38
7730;BME280;3908;52.310;7.230;2022-11-20T10:47:22;51328.94;;;-145.83;95.05
7730;BME280;3908;52.310;7.230;2022-11-20T10:50:16;51364.16;;;-145.83;95.86
7730;BME280;3908;52.310;7.230;2022-11-20T10:53:13;51332.84;;;-145.83;95.56
7730;BME280;3908;52.310;7.230;2022-11-20T10:56:07;51379.81;;;-145.83;95.02
7730;BME280;3908;52.310;7.230;2022-11-20T10:59:22;51364.16;;;-145.83;94.17
7730;BME280;3908;52.310;7.230;2022-11-20T11:02:18;51358.28;;;-145.83;93.76
7730;BME280;3908;52.310;7.230;2022-11-20T11:08:20;51358.28;;;-145.83;91.86
7730;BME280;3908;52.310;7.230;2022-11-20T11:11:18;51381.75;;;-145.83;90.70
7730;BME280;3908;52.310;7.230;2022-11-20T11:14:08;51354.38;;;-145.83;89.18
7730;BME280;3908;52.310;7.230;2022-11-20T11:16:57;51356.31;;;-145.83;89.02
7730;BME280;3908;52.310;7.230;2022-11-20T11:19:44;51360.22;;;-145.83;89.99
7730;BME280;3908;52.310;7.230;2022-11-20T11:22:33;51340.69;;;-145.83;93.13
7730;BME280;3908;52.310;7.230;2022-11-20T11:25:28;51336.75;;;-145.83;92.68
7730;BME280;3908;52.310;7.230;2022-11-20T11:28:21;51358.28;;;-145.83;93.03
7730;BME280;3908;52.310;7.230;2022-11-20T11:31:10;51373.94;;;-145.83;94.02
7730;BME280;3908;52.310;7.230;2022-11-20T11:34:04;51334.81;;;-145.83;94.22
7730;BME280;3908;52.310;7.230;2022-11-20T11:36:56;51326.97;;;-145.83;90.68
7730;BME280;3908;52.310;7.230;2022-11-20T11:39:45;51364.16;;;-145.83;89.92
7730;BME280;3908;52.310;7.230;2022-11-20T11:42:34;51370.03;;;-145.83;88.66
7730;BME280;3908;52.310;7.230;2022-11-20T11:45:22;51350.47;;;-145.83;88.38
7730;BME280;3908;52.310;7.230;2022-11-20T11:48:09;51370.03;;;-145.83;87.69
7730;BME280;3908;52.310;7.230;2022-11-20T11:50:56;51344.59;;;-145.83;86.61
7730;BME280;3908;52.310;7.230;2022-11-20T11:53:44;51350.47;;;-145.83;84.30
7730;BME280;3908;52.310;7.230;2022-11-20T11:56:33;51354.38;;;-145.83;83.14
7730;BME280;3908;52.310;7.230;2022-11-20T11:59:27;51407.19;;;-145.83;82.71
7730;BME280;3908;52.310;7.230;2022-11-20T12:02:27;51416.97;;;-145.83;80.97
7730;BME280;3908;52.310;7.230;2022-11-20T12:05:21;51389.59;;;-145.83;80.83
7730;BME280;3908;52.310;7.230;2022-11-20T12:08:15;51413.06;;;-145.83;81.12
7730;BME280;3908;52.310;7.230;2022-11-20T12:11:10;51379.81;;;-145.83;82.64
7730;BME280;3908;52.310;7.230;2022-11-20T12:14:03;51391.53;;;-145.83;82.97
7730;BME280;3908;52.310;7.230;2022-11-20T12:16:56;51377.84;;;-145.83;83.61
7730;BME280;3908;52.310;7.230;2022-11-20T12:19:43;51342.63;;;-145.83;83.81
7730;BME280;3908;52.310;7.230;2022-11-20T12:22:38;51399.38;;;-145.83;85.40
7730;BME280;3908;52.310;7.230;2022-11-20T12:25:30;51371.97;;;-145.83;84.57
7730;BME280;3908;52.310;7.230;2022-11-20T12:28:31;51358.28;;;-145.83;85.76
7730;BME280;3908;52.310;7.230;2022-11-20T12:31:38;51354.38;;;-145.83;87.82
7730;BME280;3908;52.310;7.230;2022-11-20T12:34:43;51366.09;;;-145.83;88.44
7730;BME280;3908;52.310;7.230;2022-11-20T12:37:38;51366.09;;;-145.83;85.73
7730;BME280;3908;52.310;7.230;2022-11-20T12:40:33;51364.16;;;-145.83;86.25
7730;BME280;3908;52.310;7.230;2022-11-20T12:43:24;51342.63;;;-145.83;85.11
7730;BME280;3908;52.310;7.230;2022-11-20T12:46:32;51360.22;;;-145.83;86.82
7730;BME280;3908;52.310;7.230;2022-11-20T12:49:31;51370.03;;;-145.83;86.38
7730;BME280;3908;52.310;7.230;2022-11-20T12:52:36;51373.94;;;-145.83;86.98
7730;BME280;3908;52.310;7.230;2022-11-20T12:55:46;51336.75;;;-145.83;87.70
7730;BME280;3908;52.310;7.230;2022-11-20T12:58:39;51346.53;;;-145.83;86.72
7730;BME280;3908;52.310;7.230;2022-11-20T13:01:34;51366.09;;;-145.83;84.63
7730;BME280;3908;52.310;7.230;2022-11-20T13:04:51;51381.75;;;-145.83;81.40
7730;BME280;3908;52.310;7.230;2022-11-20T13:07:44;51311.31;;;-145.83;81.37
7730;BME280;3908;52.310;7.230;2022-11-20T13:10:35;51389.59;;;-145.83;80.97
7730;BME280;3908;52.310;7.230;2022-11-20T13:13:32;51336.75;;;-145.83;79.67
7730;BME280;3908;52.310;7.230;2022-11-20T13:16:25;51354.38;;;-145.83;80.83
7730;BME280;3908;52.310;7.230;2022-11-20T13:19:17;51368.06;;;-145.83;79.67
7730;BME280;3908;52.310;7.230;2022-11-20T13:22:04;51415.00;;;-145.83;82.60
7730;BME280;3908;52.310;7.230;2022-11-20T13:24:53;51352.41;;;-145.83;88.31
7730;BME280;3908;52.310;7.230;2022-11-20T13:27:47;51336.75;;;-145.83;91.91
7730;BME280;3908;52.310;7.230;2022-11-20T13:30:35;51373.94;;;-145.83;93.97
7730;BME280;3908;52.310;7.230;2022-11-20T13:33:27;51373.94;;;-145.83;93.95
7730;BME280;3908;52.310;7.230;2022-11-20T13:36:22;51381.75;;;-145.83;95.71
7730;BME280;3908;52.310;7.230;2022-11-20T13:39:10;51366.09;;;-145.83;95.69
7730;BME280;3908;52.310;7.230;2022-11-20T13:42:00;51377.84;;;-145.83;95.58
7730;BME280;3908;52.310;7.230;2022-11-20T13:44:52;51317.19;;;-145.83;94.29
7730;BME280;3908;52.310;7.230;2022-11-20T13:47:47;51358.28;;;-145.83;94.23
7730;BME280;3908;52.310;7.230;2022-11-20T13:50:42;51315.25;;;-145.83;97.69
7730;BME280;3908;52.310;7.230;2022-11-20T13:53:46;51334.81;;;-145.83;98.25
7730;BME280;3908;52.310;7.230;2022-11-20T13:56:47;51326.97;;;-145.83;98.11
7730;BME280;3908;52.310;7.230;2022-11-20T13:59:45;51295.69;;;-145.83;99.44
7730;BME280;3908;52.310;7.230;2022-11-20T14:02:34;51340.69;;;-145.83;100.00
7730;BME280;3908;52.310;7.230;2022-11-20T14:05:22;51356.31;;;-145.83;100.00
7730;BME280;3908;52.310;7.230;2022-11-20T14:08:14;51332.84;;;-145.83;100.00
7730;BME280;3908;52.310;7.230;2022-11-20T14:11:14;51342.63;;;-145.83;100.00
7730;BME280;3908;52.310;7.230;2022-11-20T14:14:03;51362.19;;;-145.83;100.00
7730;BME280;3908;52.310;7.230;2022-11-20T14:16:53;51340.69;;;-145.83;100.00
7730;BME280;3908;52.310;7.230;2022-11-20T14:19:41;51350.47;;;-145.83;100.00
7730;BME280;3908;52.310;7.230;2022-11-20T14:22:29;51338.72;;;-145.83;100.00
7730;BME280;3908;52.310;7.230;2022-11-20T14:25:21;51368.06;;;-145.83;100.00
7730;BME280;3908;52.310;7.230;2022-11-20T14:28:22;51346.53;;;-145.83;100.00
7730;BME280;3908;52.310;7.230;2022-11-20T14:31:21;51340.69;;;-145.83;100.00
7730;BME280;3908;52.310;7.230;2022-11-20T14:34:17;51319.16;;;-145.83;100.00
7730;BME280;3908;52.310;7.230;2022-11-20T14:37:09;51375.88;;;-145.83;100.00
7730;BME280;3908;52.310;7.230;2022-11-20T14:39:57;51334.81;;;-145.83;100.00
7730;BME280;3908;52.310;7.230;2022-11-20T14:42:46;51344.59;;;-145.83;100.00
7730;BME280;3908;52.310;7.230;2022-11-20T14:45:34;51332.84;;;-145.83;100.00
7730;BME280;3908;52.310;7.230;2022-11-20T14:48:24;51313.28;;;-145.83;100.00
7730;BME280;3908;52.310;7.230;2022-11-20T14:51:27;51346.53;;;-145.83;100.00
7730;BME280;3908;52.310;7.230;2022-11-20T14:54:16;51393.50;;;-145.83;100.00
7730;BME280;3908;52.310;7.230;2022-11-20T14:57:04;51315.25;;;-145.83;100.00
7730;BME280;3908;52.310;7.230;2022-11-20T14:59:51;51336.75;;;-145.83;100.00